sensor_id;sensor_type;location;lat;lon;timestamp;pressure;altitude;pressure_sealevel;temperature;humidity
74680;BME280;63211;48.548;2.704;2023-04-16T00:00:20;101529.47;;;17.51;59.32
74680;BME280;63211;48.548;2.704;2023-04-16T00:02:47;101532.69;;;17.61;58.17
74680;BME280;63211;48.548;2.704;2023-04-16T00:05:13;101542.63;;;17.75;57.40
74680;BME280;63211;48.548;2.704;2023-04-16T00:07:40;101531.50;;;17.70;57.99
74680;BME280;63211;48.548;2.704;2023-04-16T00:10:07;101538.22;;;17.74;57.57
74680;BME280;63211;48.548;2.704;2023-04-16T00:12:34;101536.75;;;17.72;58.56
74680;BME280;63211;48.548;2.704;2023-04-16T00:15:02;101534.94;;;17.85;58.44
74680;BME280;63211;48.548;2.704;2023-04-16T00:17:29;101532.97;;;18.14;56.84
74680;BME280;63211;48.548;2.704;2023-04-16T00:19:56;101537.38;;;18.15;56.99
74680;BME280;63211;48.548;2.704;2023-04-16T00:22:22;101529.00;;;18.16;57.25
74680;BME280;63211;48.548;2.704;2023-04-16T00:24:49;101531.53;;;18.25;56.99
74680;BME280;63211;48.548;2.704;2023-04-16T00:27:17;101524.41;;;18.24;56.75
74680;BME280;63211;48.548;2.704;2023-04-16T00:29:44;101531.53;;;18.25;56.52
74680;BME280;63211;48.548;2.704;2023-04-16T00:32:12;101526.53;;;18.28;56.44
74680;BME280;63211;48.548;2.704;2023-04-16T00:34:39;101526.75;;;18.40;55.88
74680;BME280;63211;48.548;2.704;2023-04-16T00:37:05;101535.97;;;18.32;56.02
74680;BME280;63211;48.548;2.704;2023-04-16T00:39:32;101542.03;;;18.34;55.74
74680;BME280;63211;48.548;2.704;2023-04-16T00:41:58;101541.19;;;18.34;55.71
74680;BME280;63211;48.548;2.704;2023-04-16T00:44:26;101547.28;;;18.36;55.63
74680;BME280;63211;48.548;2.704;2023-04-16T00:46:53;101534.75;;;18.41;55.15
74680;BME280;63211;48.548;2.704;2023-04-16T00:49:22;101549.44;;;18.53;54.95
74680;BME280;63211;48.548;2.704;2023-04-16T00:51:49;101539.38;;;18.54;55.09
74680;BME280;63211;48.548;2.704;2023-04-16T00:54:16;101551.13;;;18.48;55.51
74680;BME280;63211;48.548;2.704;2023-04-16T00:56:43;101531.16;;;18.41;55.62
74680;BME280;63211;48.548;2.704;2023-04-16T00:59:10;101541.66;;;18.44;55.45
74680;BME280;63211;48.548;2.704;2023-04-16T01:01:37;101546.91;;;18.45;55.36
74680;BME280;63211;48.548;2.704;2023-04-16T01:04:03;101547.31;;;18.42;55.30
74680;BME280;63211;48.548;2.704;2023-04-16T01:06:32;101542.31;;;18.46;55.40
74680;BME280;63211;48.548;2.704;2023-04-16T01:08:59;101548.59;;;18.46;55.42
74680;BME280;63211;48.548;2.704;2023-04-16T01:11:26;101545.03;;;18.46;55.12
74680;BME280;63211;48.548;2.704;2023-04-16T01:13:52;101520.44;;;18.33;55.11
74680;BME280;63211;48.548;2.704;2023-04-16T01:16:19;101549.44;;;18.47;55.36
74680;BME280;63211;48.548;2.704;2023-04-16T01:18:45;101549.84;;;18.44;55.41
74680;BME280;63211;48.548;2.704;2023-04-16T01:21:13;101551.53;;;18.45;55.53
74680;BME280;63211;48.548;2.704;2023-04-16T01:23:40;101552.38;;;18.52;55.30
74680;BME280;63211;48.548;2.704;2023-04-16T01:26:06;101555.09;;;18.52;55.42
74680;BME280;63211;48.548;2.704;2023-04-16T01:28:34;101545.03;;;18.52;55.41
74680;BME280;63211;48.548;2.704;2023-04-16T01:31:00;101547.13;;;18.50;55.56
74680;BME280;63211;48.548;2.704;2023-04-16T01:33:27;101540.41;;;18.53;55.50
74680;BME280;63211;48.548;2.704;2023-04-16T01:35:53;101540.66;;;18.58;55.59
74680;BME280;63211;48.548;2.704;2023-04-16T01:38:21;101540.28;;;18.61;55.48
74680;BME280;63211;48.548;2.704;2023-04-16T01:40:48;101549.09;;;18.63;55.28
74680;BME280;63211;48.548;2.704;2023-04-16T01:43:15;101544.47;;;18.64;55.16
74680;BME280;63211;48.548;2.704;2023-04-16T01:45:41;101539.03;;;18.64;55.42
74680;BME280;63211;48.548;2.704;2023-04-16T01:48:08;101543.00;;;18.61;55.15
74680;BME280;63211;48.548;2.704;2023-04-16T01:50:34;101536.50;;;18.62;55.04
74680;BME280;63211;48.548;2.704;2023-04-16T01:53:01;101541.13;;;18.62;55.00
74680;BME280;63211;48.548;2.704;2023-04-16T01:55:31;101542.53;;;18.58;54.96
74680;BME280;63211;48.548;2.704;2023-04-16T01:57:57;101541.25;;;18.53;55.15
74680;BME280;63211;48.548;2.704;2023-04-16T02:00:24;101540.63;;;18.51;55.22
74680;BME280;63211;48.548;2.704;2023-04-16T02:02:50;101537.91;;;18.51;55.33
74680;BME280;63211;48.548;2.704;2023-04-16T02:05:17;101543.34;;;18.51;55.10
74680;BME280;63211;48.548;2.704;2023-04-16T02:07:44;101543.56;;;18.50;55.23
74680;BME280;63211;48.548;2.704;2023-04-16T02:10:10;101547.34;;;18.49;55.66
74680;BME280;63211;48.548;2.704;2023-04-16T02:12:38;101546.50;;;18.48;55.18
74680;BME280;63211;48.548;2.704;2023-04-16T02:15:06;101547.56;;;18.47;55.47
74680;BME280;63211;48.548;2.704;2023-04-16T02:17:32;101525.91;;;18.33;55.35
74680;BME280;63211;48.548;2.704;2023-04-16T02:19:59;101560.75;;;18.44;55.34
74680;BME280;63211;48.548;2.704;2023-04-16T02:22:27;101557.63;;;18.47;55.19
74680;BME280;63211;48.548;2.704;2023-04-16T02:24:54;101557.63;;;18.53;55.23
74680;BME280;63211;48.548;2.704;2023-04-16T02:27:20;101563.78;;;18.62;54.88
74680;BME280;63211;48.548;2.704;2023-04-16T02:29:48;101559.78;;;18.65;54.60
74680;BME280;63211;48.548;2.704;2023-04-16T02:32:15;101557.06;;;18.65;54.86
74680;BME280;63211;48.548;2.704;2023-04-16T02:34:42;101554.97;;;18.67;54.73
74680;BME280;63211;48.548;2.704;2023-04-16T02:37:09;101553.72;;;18.69;54.76
74680;BME280;63211;48.548;2.704;2023-04-16T02:39:35;101553.28;;;18.72;54.59
74680;BME280;63211;48.548;2.704;2023-04-16T02:42:02;101548.88;;;18.71;54.72
74680;BME280;63211;48.548;2.704;2023-04-16T02:44:29;101554.78;;;18.68;54.77
74680;BME280;63211;48.548;2.704;2023-04-16T02:46:56;101552.25;;;18.67;54.57
74680;BME280;63211;48.548;2.704;2023-04-16T02:49:23;101547.00;;;18.65;54.48
74680;BME280;63211;48.548;2.704;2023-04-16T02:51:50;101554.09;;;18.60;54.47
74680;BME280;63211;48.548;2.704;2023-04-16T02:54:16;101551.13;;;18.54;54.52
74680;BME280;63211;48.548;2.704;2023-04-16T02:56:43;101565.81;;;18.53;54.57
74680;BME280;63211;48.548;2.704;2023-04-16T02:59:09;101572.31;;;18.52;54.74
74680;BME280;63211;48.548;2.704;2023-04-16T03:01:36;101566.84;;;18.52;54.70
74680;BME280;63211;48.548;2.704;2023-04-16T03:04:04;101570.81;;;18.50;54.52
74680;BME280;63211;48.548;2.704;2023-04-16T03:06:31;101570.00;;;18.49;54.88
74680;BME280;63211;48.548;2.704;2023-04-16T03:08:57;101577.97;;;18.51;55.35
74680;BME280;63211;48.548;2.704;2023-04-16T03:11:24;101576.28;;;18.50;54.88
74680;BME280;63211;48.548;2.704;2023-04-16T03:13:50;101581.13;;;18.48;55.41
74680;BME280;63211;48.548;2.704;2023-04-16T03:16:18;101577.97;;;18.44;55.08
74680;BME280;63211;48.548;2.704;2023-04-16T03:18:44;101588.03;;;18.44;55.42
74680;BME280;63211;48.548;2.704;2023-04-16T03:21:12;101582.38;;;18.45;55.25
74680;BME280;63211;48.548;2.704;2023-04-16T03:23:39;101596.44;;;18.49;54.90
74680;BME280;63211;48.548;2.704;2023-04-16T03:26:05;101591.44;;;18.59;54.64
74680;BME280;63211;48.548;2.704;2023-04-16T03:28:32;101582.66;;;18.64;54.47
74680;BME280;63211;48.548;2.704;2023-04-16T03:30:59;101590.22;;;18.68;54.62
74680;BME280;63211;48.548;2.704;2023-04-16T03:33:25;101585.63;;;18.69;54.44
74680;BME280;63211;48.548;2.704;2023-04-16T03:35:55;101592.31;;;18.73;54.23
74680;BME280;63211;48.548;2.704;2023-04-16T03:38:24;101591.06;;;18.75;54.38
74680;BME280;63211;48.548;2.704;2023-04-16T03:40:51;101590.03;;;18.76;54.15
74680;BME280;63211;48.548;2.704;2023-04-16T03:43:17;101586.66;;;18.74;53.87
74680;BME280;63211;48.548;2.704;2023-04-16T03:45:44;101592.53;;;18.71;53.57
74680;BME280;63211;48.548;2.704;2023-04-16T03:48:11;101585.19;;;18.65;54.17
74680;BME280;63211;48.548;2.704;2023-04-16T03:50:37;101590.41;;;18.60;53.76
74680;BME280;63211;48.548;2.704;2023-04-16T03:53:04;101592.47;;;18.58;54.02
74680;BME280;63211;48.548;2.704;2023-04-16T03:55:32;101595.19;;;18.58;54.15
74680;BME280;63211;48.548;2.704;2023-04-16T03:57:58;101593.72;;;18.55;54.28
74680;BME280;63211;48.548;2.704;2023-04-16T04:00:27;101594.75;;;18.54;54.29
74680;BME280;63211;48.548;2.704;2023-04-16T04:02:53;101596.63;;;18.54;54.19
74680;BME280;63211;48.548;2.704;2023-04-16T04:05:20;101598.53;;;18.53;54.46
74680;BME280;63211;48.548;2.704;2023-04-16T04:07:47;101599.78;;;18.51;54.48
74680;BME280;63211;48.548;2.704;2023-04-16T04:10:13;101604.81;;;18.47;55.10
74680;BME280;63211;48.548;2.704;2023-04-16T04:12:41;101602.28;;;18.46;55.01
74680;BME280;63211;48.548;2.704;2023-04-16T04:15:09;101578.72;;;18.32;54.72
74680;BME280;63211;48.548;2.704;2023-04-16T04:17:36;101603.97;;;18.47;54.68
74680;BME280;63211;48.548;2.704;2023-04-16T04:20:03;101606.72;;;18.47;54.51
74680;BME280;63211;48.548;2.704;2023-04-16T04:22:29;101599.38;;;18.47;54.76
74680;BME280;63211;48.548;2.704;2023-04-16T04:24:56;101598.31;;;18.55;54.81
74680;BME280;63211;48.548;2.704;2023-04-16T04:27:23;101596.31;;;18.64;54.18
74680;BME280;63211;48.548;2.704;2023-04-16T04:29:51;101598.41;;;18.68;54.03
74680;BME280;63211;48.548;2.704;2023-04-16T04:32:17;101590.03;;;18.70;54.23
74680;BME280;63211;48.548;2.704;2023-04-16T04:34:44;101601.53;;;18.72;53.98
74680;BME280;63211;48.548;2.704;2023-04-16T04:37:10;101609.53;;;18.73;53.64
74680;BME280;63211;48.548;2.704;2023-04-16T04:39:37;101600.09;;;18.76;53.44
74680;BME280;63211;48.548;2.704;2023-04-16T04:42:04;101602.81;;;18.76;53.36
74680;BME280;63211;48.548;2.704;2023-04-16T04:44:30;101599.47;;;18.74;53.41
74680;BME280;63211;48.548;2.704;2023-04-16T04:46:58;101609.72;;;18.72;52.88
74680;BME280;63211;48.548;2.704;2023-04-16T04:49:25;101607.44;;;18.69;52.98
74680;BME280;63211;48.548;2.704;2023-04-16T04:51:51;101610.97;;;18.63;53.57
74680;BME280;63211;48.548;2.704;2023-04-16T04:54:18;101608.66;;;18.60;53.60
74680;BME280;63211;48.548;2.704;2023-04-16T04:56:44;101613.28;;;18.59;53.66
74680;BME280;63211;48.548;2.704;2023-04-16T04:59:11;101622.47;;;18.58;53.58
74680;BME280;63211;48.548;2.704;2023-04-16T05:01:38;101620.97;;;18.55;54.04
74680;BME280;63211;48.548;2.704;2023-04-16T05:04:06;101621.59;;;18.51;54.24
74680;BME280;63211;48.548;2.704;2023-04-16T05:06:32;101614.88;;;18.47;54.85
74680;BME280;63211;48.548;2.704;2023-04-16T05:08:59;101621.38;;;18.46;54.25
74680;BME280;63211;48.548;2.704;2023-04-16T05:11:26;101620.34;;;18.47;54.23
74680;BME280;63211;48.548;2.704;2023-04-16T05:13:52;101622.88;;;18.48;54.32
74680;BME280;63211;48.548;2.704;2023-04-16T05:16:19;101620.34;;;18.47;54.17
74680;BME280;63211;48.548;2.704;2023-04-16T05:18:45;101629.56;;;18.46;54.31
74680;BME280;63211;48.548;2.704;2023-04-16T05:21:13;101628.53;;;18.47;54.28
74680;BME280;63211;48.548;2.704;2023-04-16T05:23:40;101629.16;;;18.49;54.53
74680;BME280;63211;48.548;2.704;2023-04-16T05:26:07;101615.72;;;18.54;54.04
74680;BME280;63211;48.548;2.704;2023-04-16T05:28:33;101624.00;;;18.67;53.59
74680;BME280;63211;48.548;2.704;2023-04-16T05:31:00;101629.88;;;18.71;53.58
74680;BME280;63211;48.548;2.704;2023-04-16T05:33:26;101638.91;;;18.71;53.46
74680;BME280;63211;48.548;2.704;2023-04-16T05:35:53;101639.72;;;18.72;52.89
74680;BME280;63211;48.548;2.704;2023-04-16T05:38:21;101636.81;;;18.73;52.94
74680;BME280;63211;48.548;2.704;2023-04-16T05:40:48;101636.59;;;18.75;53.07
74680;BME280;63211;48.548;2.704;2023-04-16T05:43:14;101643.94;;;18.74;53.06
74680;BME280;63211;48.548;2.704;2023-04-16T05:45:41;101640.16;;;18.75;52.47
74680;BME280;63211;48.548;2.704;2023-04-16T05:48:08;101638.50;;;18.74;52.35
74680;BME280;63211;48.548;2.704;2023-04-16T05:50:35;101642.06;;;18.68;52.72
74680;BME280;63211;48.548;2.704;2023-04-16T05:53:04;101640.56;;;18.66;52.80
74680;BME280;63211;48.548;2.704;2023-04-16T05:55:32;101640.13;;;18.62;53.12
74680;BME280;63211;48.548;2.704;2023-04-16T05:57:59;101647.22;;;18.57;53.41
74680;BME280;63211;48.548;2.704;2023-04-16T06:00:28;101643.19;;;18.52;53.81
74680;BME280;63211;48.548;2.704;2023-04-16T06:02:55;101640.91;;;18.49;53.51
74680;BME280;63211;48.548;2.704;2023-04-16T06:05:22;101649.91;;;18.50;53.06
74680;BME280;63211;48.548;2.704;2023-04-16T06:07:48;101647.41;;;18.48;53.29
74680;BME280;63211;48.548;2.704;2023-04-16T06:10:15;101651.59;;;18.51;52.94
74680;BME280;63211;48.548;2.704;2023-04-16T06:12:43;101651.19;;;18.47;52.98
74680;BME280;63211;48.548;2.704;2023-04-16T06:15:10;101634.75;;;18.34;53.44
74680;BME280;63211;48.548;2.704;2023-04-16T06:17:37;101657.03;;;18.44;53.30
74680;BME280;63211;48.548;2.704;2023-04-16T06:20:04;101660.59;;;18.45;53.14
74680;BME280;63211;48.548;2.704;2023-04-16T06:22:31;101670.25;;;18.47;53.48
74680;BME280;63211;48.548;2.704;2023-04-16T06:24:58;101678.25;;;18.49;53.93
74680;BME280;63211;48.548;2.704;2023-04-16T06:27:25;101672.41;;;18.59;53.32
74680;BME280;63211;48.548;2.704;2023-04-16T06:29:53;101667.66;;;18.67;53.21
74680;BME280;63211;48.548;2.704;2023-04-16T06:32:19;101674.34;;;18.71;53.07
74680;BME280;63211;48.548;2.704;2023-04-16T06:34:46;101671.22;;;18.74;52.83
74680;BME280;63211;48.548;2.704;2023-04-16T06:37:12;101671.03;;;18.76;52.86
74680;BME280;63211;48.548;2.704;2023-04-16T06:39:40;101673.75;;;18.76;52.89
74680;BME280;63211;48.548;2.704;2023-04-16T06:42:07;101675.22;;;18.78;53.04
74680;BME280;63211;48.548;2.704;2023-04-16T06:44:34;101674.59;;;18.76;52.64
74680;BME280;63211;48.548;2.704;2023-04-16T06:47:02;101683.63;;;18.77;52.09
74680;BME280;63211;48.548;2.704;2023-04-16T06:49:29;101680.66;;;18.72;51.85
74680;BME280;63211;48.548;2.704;2023-04-16T06:51:56;101680.44;;;18.67;51.80
74680;BME280;63211;48.548;2.704;2023-04-16T06:54:23;101681.50;;;18.66;52.00
74680;BME280;63211;48.548;2.704;2023-04-16T06:56:49;101688.00;;;18.65;52.14
74680;BME280;63211;48.548;2.704;2023-04-16T06:59:16;101682.75;;;18.63;52.21
74680;BME280;63211;48.548;2.704;2023-04-16T07:01:42;101690.06;;;18.63;52.11
74680;BME280;63211;48.548;2.704;2023-04-16T07:04:10;101686.50;;;18.62;52.16
74680;BME280;63211;48.548;2.704;2023-04-16T07:06:37;101689.81;;;18.58;52.73
74680;BME280;63211;48.548;2.704;2023-04-16T07:09:04;101689.38;;;18.54;53.74
74680;BME280;63211;48.548;2.704;2023-04-16T07:11:30;101697.28;;;18.42;53.83
74680;BME280;63211;48.548;2.704;2023-04-16T07:13:57;101693.06;;;18.74;53.46
74680;BME280;63211;48.548;2.704;2023-04-16T07:16:24;101692.66;;;18.77;53.17
74680;BME280;63211;48.548;2.704;2023-04-16T07:18:50;101691.56;;;18.65;53.15
74680;BME280;63211;48.548;2.704;2023-04-16T07:21:18;101684.03;;;18.67;53.13
74680;BME280;63211;48.548;2.704;2023-04-16T07:23:45;101694.97;;;18.80;52.71
74680;BME280;63211;48.548;2.704;2023-04-16T07:26:11;101690.91;;;18.63;53.26
74680;BME280;63211;48.548;2.704;2023-04-16T07:28:38;101696.06;;;18.45;54.74
74680;BME280;63211;48.548;2.704;2023-04-16T07:31:05;101700.41;;;18.39;54.77
74680;BME280;63211;48.548;2.704;2023-04-16T07:33:31;101695.22;;;18.51;53.99
74680;BME280;63211;48.548;2.704;2023-04-16T07:35:58;101694.50;;;18.64;53.60
74680;BME280;63211;48.548;2.704;2023-04-16T07:38:26;101699.31;;;18.62;53.63
74680;BME280;63211;48.548;2.704;2023-04-16T07:40:53;101678.44;;;18.47;53.89
74680;BME280;63211;48.548;2.704;2023-04-16T07:43:20;101698.91;;;18.65;53.05
74680;BME280;63211;48.548;2.704;2023-04-16T07:45:47;101700.59;;;18.72;53.10
74680;BME280;63211;48.548;2.704;2023-04-16T07:48:13;101702.47;;;18.72;52.40
74680;BME280;63211;48.548;2.704;2023-04-16T07:50:40;101705.47;;;18.83;53.01
74680;BME280;63211;48.548;2.704;2023-04-16T07:53:07;101708.25;;;18.90;52.77
74680;BME280;63211;48.548;2.704;2023-04-16T07:55:35;101700.22;;;18.82;53.21
74680;BME280;63211;48.548;2.704;2023-04-16T07:58:02;101701.75;;;18.91;52.44
74680;BME280;63211;48.548;2.704;2023-04-16T08:00:30;101708.88;;;18.99;52.48
74680;BME280;63211;48.548;2.704;2023-04-16T08:02:57;101707.63;;;19.01;52.50
74680;BME280;63211;48.548;2.704;2023-04-16T08:05:24;101709.75;;;19.06;52.40
74680;BME280;63211;48.548;2.704;2023-04-16T08:07:50;101710.59;;;19.06;51.95
74680;BME280;63211;48.548;2.704;2023-04-16T08:10:17;101713.31;;;19.06;52.03
74680;BME280;63211;48.548;2.704;2023-04-16T08:12:45;101714.16;;;19.07;51.95
74680;BME280;63211;48.548;2.704;2023-04-16T08:15:12;101723.63;;;19.11;51.76
74680;BME280;63211;48.548;2.704;2023-04-16T08:17:38;101725.09;;;19.13;51.54
74680;BME280;63211;48.548;2.704;2023-04-16T08:20:06;101723.00;;;19.15;51.55
74680;BME280;63211;48.548;2.704;2023-04-16T08:22:32;101715.22;;;19.19;51.82
74680;BME280;63211;48.548;2.704;2023-04-16T08:24:59;101715.22;;;19.19;51.54
74680;BME280;63211;48.548;2.704;2023-04-16T08:27:26;101727.44;;;19.23;51.57
74680;BME280;63211;48.548;2.704;2023-04-16T08:29:53;101722.59;;;19.25;51.43
74680;BME280;63211;48.548;2.704;2023-04-16T08:32:20;101727.03;;;19.26;51.51
74680;BME280;63211;48.548;2.704;2023-04-16T08:34:47;101730.41;;;19.28;50.98
74680;BME280;63211;48.548;2.704;2023-04-16T08:37:13;101739.84;;;19.26;51.10
74680;BME280;63211;48.548;2.704;2023-04-16T08:39:40;101726.38;;;19.24;51.42
74680;BME280;63211;48.548;2.704;2023-04-16T08:42:11;101731.84;;;19.24;51.08
74680;BME280;63211;48.548;2.704;2023-04-16T08:44:43;101730.16;;;19.23;50.89
74680;BME280;63211;48.548;2.704;2023-04-16T08:47:14;101736.25;;;19.25;51.21
74680;BME280;63211;48.548;2.704;2023-04-16T08:49:43;101741.31;;;19.28;51.13
74680;BME280;63211;48.548;2.704;2023-04-16T08:52:14;101736.50;;;19.30;50.95
74680;BME280;63211;48.548;2.704;2023-04-16T08:54:46;101732.28;;;19.28;51.16
74680;BME280;63211;48.548;2.704;2023-04-16T08:57:18;101729.56;;;19.28;50.82
74680;BME280;63211;48.548;2.704;2023-04-16T08:59:45;101740.69;;;19.26;50.80
74680;BME280;63211;48.548;2.704;2023-04-16T09:02:13;101743.19;;;19.28;50.55
74680;BME280;63211;48.548;2.704;2023-04-16T09:04:40;101738.38;;;19.30;50.31
74680;BME280;63211;48.548;2.704;2023-04-16T09:07:07;101732.72;;;19.31;50.24
74680;BME280;63211;48.548;2.704;2023-04-16T09:09:34;101736.06;;;19.33;49.94
74680;BME280;63211;48.548;2.704;2023-04-16T09:12:03;101733.31;;;19.27;50.03
74680;BME280;63211;48.548;2.704;2023-04-16T09:14:30;101743.44;;;19.33;50.55
74680;BME280;63211;48.548;2.704;2023-04-16T09:16:56;101747.63;;;19.35;50.44
74680;BME280;63211;48.548;2.704;2023-04-16T09:19:26;101747.41;;;19.37;50.64
74680;BME280;63211;48.548;2.704;2023-04-16T09:21:53;101745.53;;;19.37;50.48
74680;BME280;63211;48.548;2.704;2023-04-16T09:24:20;101735.00;;;19.34;50.48
74680;BME280;63211;48.548;2.704;2023-04-16T09:26:47;101749.53;;;19.41;50.80
74680;BME280;63211;48.548;2.704;2023-04-16T09:29:32;101749.72;;;19.40;50.62
74680;BME280;63211;48.548;2.704;2023-04-16T09:32:01;101756.25;;;19.39;50.66
74680;BME280;63211;48.548;2.704;2023-04-16T09:34:30;101751.00;;;19.44;50.82
74680;BME280;63211;48.548;2.704;2023-04-16T09:37:13;101753.31;;;19.40;50.61
74680;BME280;63211;48.548;2.704;2023-04-16T09:39:40;101744.25;;;19.40;50.69
74680;BME280;63211;48.548;2.704;2023-04-16T09:42:07;101752.66;;;19.38;50.88
74680;BME280;63211;48.548;2.704;2023-04-16T09:44:34;101748.06;;;19.32;50.71
74680;BME280;63211;48.548;2.704;2023-04-16T09:47:05;101750.78;;;19.39;50.56
74680;BME280;63211;48.548;2.704;2023-04-16T09:49:36;101750.97;;;19.37;50.64
74680;BME280;63211;48.548;2.704;2023-04-16T09:52:08;101759.16;;;19.37;50.26
74680;BME280;63211;48.548;2.704;2023-04-16T09:54:38;101755.19;;;19.40;50.64
74680;BME280;63211;48.548;2.704;2023-04-16T09:57:07;101752.22;;;19.35;50.56
74680;BME280;63211;48.548;2.704;2023-04-16T09:59:34;101757.28;;;19.38;50.63
74680;BME280;63211;48.548;2.704;2023-04-16T10:02:01;101760.66;;;19.40;50.72
74680;BME280;63211;48.548;2.704;2023-04-16T10:04:27;101768.00;;;19.39;50.62
74680;BME280;63211;48.548;2.704;2023-04-16T10:07:02;101760.00;;;19.38;50.45
74680;BME280;63211;48.548;2.704;2023-04-16T10:09:30;101769.06;;;19.32;50.50
74680;BME280;63211;48.548;2.704;2023-04-16T10:11:57;101757.28;;;19.31;50.12
74680;BME280;63211;48.548;2.704;2023-04-16T10:14:24;101756.00;;;19.34;50.23
74680;BME280;63211;48.548;2.704;2023-04-16T10:16:51;101757.50;;;19.36;50.23
74680;BME280;63211;48.548;2.704;2023-04-16T10:19:19;101760.63;;;19.33;50.48
74680;BME280;63211;48.548;2.704;2023-04-16T10:21:46;101753.50;;;19.32;50.20
74680;BME280;63211;48.548;2.704;2023-04-16T10:24:15;101754.13;;;19.34;50.28
74680;BME280;63211;48.548;2.704;2023-04-16T10:26:43;101753.28;;;19.34;50.40
74680;BME280;63211;48.548;2.704;2023-04-16T10:29:10;101752.88;;;19.30;50.48
74680;BME280;63211;48.548;2.704;2023-04-16T10:31:38;101752.66;;;19.32;50.27
74680;BME280;63211;48.548;2.704;2023-04-16T10:34:06;101752.44;;;19.33;50.03
74680;BME280;63211;48.548;2.704;2023-04-16T10:36:35;101757.91;;;19.33;50.16
74680;BME280;63211;48.548;2.704;2023-04-16T10:39:03;101755.41;;;19.32;50.50
74680;BME280;63211;48.548;2.704;2023-04-16T10:41:32;101762.13;;;19.29;50.88
74680;BME280;63211;48.548;2.704;2023-04-16T10:44:06;101756.00;;;19.34;50.71
74680;BME280;63211;48.548;2.704;2023-04-16T10:46:36;101749.09;;;19.31;50.32
74680;BME280;63211;48.548;2.704;2023-04-16T10:49:12;101755.59;;;19.30;50.42
74680;BME280;63211;48.548;2.704;2023-04-16T10:51:39;101751.84;;;19.31;50.28
74680;BME280;63211;48.548;2.704;2023-04-16T10:54:19;101751.38;;;19.34;50.57
74680;BME280;63211;48.548;2.704;2023-04-16T10:56:48;101756.25;;;19.39;50.35
74680;BME280;63211;48.548;2.704;2023-04-16T10:59:18;101747.84;;;19.40;50.46
74680;BME280;63211;48.548;2.704;2023-04-16T11:01:46;101748.69;;;19.41;50.97
74680;BME280;63211;48.548;2.704;2023-04-16T11:04:32;101755.00;;;19.41;50.69
74680;BME280;63211;48.548;2.704;2023-04-16T11:07:01;101743.19;;;19.34;50.92
74680;BME280;63211;48.548;2.704;2023-04-16T11:09:42;101748.25;;;19.37;50.71
74680;BME280;63211;48.548;2.704;2023-04-16T11:12:13;101739.22;;;19.37;50.75
74680;BME280;63211;48.548;2.704;2023-04-16T11:14:41;101741.31;;;19.35;50.73
74680;BME280;63211;48.548;2.704;2023-04-16T11:17:07;101737.72;;;19.34;50.86
74680;BME280;63211;48.548;2.704;2023-04-16T11:19:34;101737.97;;;19.33;50.55
74680;BME280;63211;48.548;2.704;2023-04-16T11:22:01;101698.44;;;19.15;50.75
74680;BME280;63211;48.548;2.704;2023-04-16T11:24:28;101734.59;;;19.31;50.56
74680;BME280;63211;48.548;2.704;2023-04-16T11:26:55;101725.13;;;19.27;50.88
74680;BME280;63211;48.548;2.704;2023-04-16T11:29:23;101719.88;;;19.25;50.92
74680;BME280;63211;48.548;2.704;2023-04-16T11:31:50;101712.94;;;19.22;50.85
74680;BME280;63211;48.548;2.704;2023-04-16T11:34:17;101729.34;;;19.29;50.82
74680;BME280;63211;48.548;2.704;2023-04-16T11:36:44;101718.00;;;19.26;51.01
74680;BME280;63211;48.548;2.704;2023-04-16T11:39:11;101720.31;;;19.29;50.76
74680;BME280;63211;48.548;2.704;2023-04-16T11:41:41;101712.75;;;19.24;51.10
74680;BME280;63211;48.548;2.704;2023-04-16T11:44:19;101723.03;;;19.29;50.56
74680;BME280;63211;48.548;2.704;2023-04-16T11:46:47;101712.13;;;19.29;50.93
74680;BME280;63211;48.548;2.704;2023-04-16T11:49:14;101717.59;;;19.29;50.90
74680;BME280;63211;48.548;2.704;2023-04-16T11:51:42;101713.16;;;19.28;50.59
74680;BME280;63211;48.548;2.704;2023-04-16T11:54:17;101711.28;;;19.28;50.79
74680;BME280;63211;48.548;2.704;2023-04-16T11:56:46;101717.78;;;19.27;50.77
74680;BME280;63211;48.548;2.704;2023-04-16T11:59:14;101701.19;;;19.22;51.03
74680;BME280;63211;48.548;2.704;2023-04-16T12:01:45;101699.50;;;19.21;51.01
74680;BME280;63211;48.548;2.704;2023-04-16T12:04:14;101709.59;;;19.27;50.85
74680;BME280;63211;48.548;2.704;2023-04-16T12:07:07;101706.88;;;19.27;50.58
74680;BME280;63211;48.548;2.704;2023-04-16T12:09:35;101711.06;;;19.23;50.93
74680;BME280;63211;48.548;2.704;2023-04-16T12:12:02;101710.00;;;19.24;50.76
74680;BME280;63211;48.548;2.704;2023-04-16T12:14:30;101706.03;;;19.27;50.71
74680;BME280;63211;48.548;2.704;2023-04-16T12:17:18;101698.69;;;19.27;50.72
74680;BME280;63211;48.548;2.704;2023-04-16T12:19:50;101698.25;;;19.23;50.71
74680;BME280;63211;48.548;2.704;2023-04-16T12:22:16;101702.88;;;19.23;50.84
74680;BME280;63211;48.548;2.704;2023-04-16T12:24:43;101716.72;;;19.21;50.76
74680;BME280;63211;48.548;2.704;2023-04-16T12:27:10;101713.16;;;19.21;50.70
74680;BME280;63211;48.548;2.704;2023-04-16T12:29:37;101708.53;;;19.21;50.63
74680;BME280;63211;48.548;2.704;2023-04-16T12:32:04;101706.00;;;19.20;50.61
74680;BME280;63211;48.548;2.704;2023-04-16T12:34:30;101687.72;;;19.07;50.75
74680;BME280;63211;48.548;2.704;2023-04-16T12:37:05;101695.91;;;19.20;50.37
74680;BME280;63211;48.548;2.704;2023-04-16T12:39:32;101702.03;;;19.29;50.44
74680;BME280;63211;48.548;2.704;2023-04-16T12:41:58;101698.47;;;19.29;50.17
74680;BME280;63211;48.548;2.704;2023-04-16T12:44:25;101697.63;;;19.35;50.15
74680;BME280;63211;48.548;2.704;2023-04-16T12:46:52;101698.88;;;19.39;50.12
74680;BME280;63211;48.548;2.704;2023-04-16T12:49:19;101703.50;;;19.38;50.31
74680;BME280;63211;48.548;2.704;2023-04-16T12:51:46;101689.00;;;19.38;50.53